Terminal Aerodrome Forecast
Issued by NWS

Home | Current Version | Previous Version | Text Only | Print | Product List | Glossary On
Versions: 1 2 3 4 5 6 7 8 9 10 11 12 13 14 15 16 17 18 19 20
000
FTUS41 KGYX 301120
TAFHIE
TAF
KHIE 301120Z 3012/3112 00000KT P6SM BKN090
     FM301500 24010KT P6SM SCT250
     FM302100 23009KT P6SM BKN100
      TEMPO 3021/3024 4SM -TSRA BR BKN035CB
     FM310000 24007KT P6SM -SHRA OVC050=

USA.gov is the U.S. government's official web portal to all federal, state and local government web resources and services.